Time;durP1;ratioP1;P1;durP2;ratioP2;P2;SDS_P1;SDS_P2;PMS_P1;PMS_P2;Temp;Humidity;BMP_temperature;BMP_pressure;BME280_temperature;BME280_humidity;BME280_pressure;Samples;Min_cycle;Max_cycle;Signal;HPM_P1;HPM_P2
2021/07/14 00:01:48;;;;;;;82.57;53.00;;;;;;;;;;5076767;28;20434;-51
2021/07/14 00:04:14;;;;;;;72.40;50.20;;;;;;;;;;5076582;28;20890;-51
2021/07/14 00:06:40;;;;;;;74.93;51.30;;;;;;;;;;5076708;28;20471;-51
2021/07/14 00:09:10;;;;;;;65.63;49.17;;;;;;;;;;5077239;28;20395;-51
2021/07/14 00:11:54;;;;;;;65.83;47.73;;;;;;;;;;5076351;28;20406;-51
2021/07/14 00:22:22;;;;;;;64.63;46.47;;;;;;;;;;5077140;28;20429;-51
2021/07/14 00:24:48;;;;;;;63.80;45.77;;;;;;;;;;5077139;28;20384;-51
2021/07/14 00:27:14;;;;;;;64.43;46.90;;;;;;;;;;5077691;28;20422;-51
2021/07/14 00:29:49;;;;;;;61.17;45.30;;;;;;;;;;5077435;28;20446;-51
2021/07/14 00:32:15;;;;;;;68.30;45.07;;;;;;;;;;5077463;28;20405;-51
2021/07/14 00:34:41;;;;;;;66.60;46.67;;;;;;;;;;5076540;28;20404;-51
2021/07/14 00:37:07;;;;;;;63.37;44.87;;;;;;;;;;5076925;28;20461;-51
2021/07/14 00:39:33;;;;;;;60.53;44.33;;;;;;;;;;5076302;28;20631;-51
2021/07/14 00:41:59;;;;;;;56.83;44.07;;;;;;;;;;5076880;28;20455;-51
2021/07/14 00:44:25;;;;;;;67.50;42.97;;;;;;;;;;5076519;28;20398;-51
2021/07/14 00:46:53;;;;;;;58.90;42.97;;;;;;;;;;5077224;28;20422;-51
2021/07/14 00:49:19;;;;;;;61.10;45.20;;;;;;;;;;5076862;28;20406;-51
2021/07/14 00:51:45;;;;;;;53.50;38.30;;;;;;;;;;5076923;28;20496;-51
2021/07/14 00:54:11;;;;;;;60.93;42.90;;;;;;;;;;5075913;28;20430;-51
2021/07/14 00:56:39;;;;;;;59.93;42.50;;;;;;;;;;5076336;28;20456;-51
2021/07/14 00:59:05;;;;;;;49.90;38.80;;;;;;;;;;5076098;28;20457;-51
2021/07/14 01:01:31;;;;;;;58.40;44.93;;;;;;;;;;5076620;28;20787;-51
2021/07/14 01:04:13;;;;;;;62.23;41.53;;;;;;;;;;5074556;28;20415;-51
2021/07/14 01:06:45;;;;;;;56.17;38.23;;;;;;;;;;5075574;28;20427;-51
2021/07/14 01:09:12;;;;;;;92.00;44.60;;;;;;;;;;5074708;28;20497;-51
2021/07/14 01:11:39;;;;;;;56.80;40.67;;;;;;;;;;5075827;28;20441;-51
2021/07/14 01:14:35;;;;;;;57.27;42.77;;;;;;;;;;5075554;28;20492;-51
2021/07/14 01:17:09;;;;;;;55.43;43.33;;;;;;;;;;5074927;28;20534;-51
2021/07/14 01:19:35;;;;;;;59.03;42.60;;;;;;;;;;5075285;28;20495;-51
2021/07/14 01:22:05;;;;;;;58.83;41.00;;;;;;;;;;5075064;28;20414;-51
2021/07/14 01:24:41;;;;;;;54.97;41.80;;;;;;;;;;5074386;28;20441;-51
2021/07/14 01:27:10;;;;;;;55.63;41.87;;;;;;;;;;5075360;28;20431;-51
2021/07/14 01:29:41;;;;;;;56.87;42.23;;;;;;;;;;5074182;28;20893;-51
2021/07/14 01:32:07;;;;;;;58.90;42.10;;;;;;;;;;5074772;28;20412;-51
2021/07/14 01:34:35;;;;;;;68.03;45.40;;;;;;;;;;5075123;28;20464;-51
2021/07/14 01:37:03;;;;;;;55.13;39.37;;;;;;;;;;5074995;28;20493;-51
2021/07/14 01:39:31;;;;;;;70.50;38.77;;;;;;;;;;5074144;28;20434;-51
2021/07/14 01:41:57;;;;;;;74.23;38.80;;;;;;;;;;5074334;28;20390;-51
2021/07/14 01:44:27;;;;;;;62.57;39.53;;;;;;;;;;5073253;28;20843;-51
2021/07/14 01:46:58;;;;;;;55.07;42.30;;;;;;;;;;5073557;28;20778;-51
2021/07/14 01:49:25;;;;;;;59.87;43.90;;;;;;;;;;5074473;28;20452;-51
2021/07/14 01:51:54;;;;;;;66.90;46.13;;;;;;;;;;5074356;28;20403;-51
2021/07/14 01:54:24;;;;;;;63.30;45.40;;;;;;;;;;5074446;28;20408;-51
2021/07/14 01:56:51;;;;;;;79.50;44.00;;;;;;;;;;5074689;28;20511;-51
2021/07/14 01:59:18;;;;;;;58.57;41.30;;;;;;;;;;5074511;28;20405;-51
2021/07/14 02:01:44;;;;;;;64.80;44.77;;;;;;;;;;5074919;28;20393;-51
2021/07/14 02:04:30;;;;;;;67.70;45.00;;;;;;;;;;5074360;28;20408;-51
2021/07/14 02:06:56;;;;;;;60.10;42.00;;;;;;;;;;5074181;28;20792;-51
2021/07/14 02:09:22;;;;;;;56.30;42.60;;;;;;;;;;5074095;28;20402;-51
2021/07/14 02:11:51;;;;;;;53.33;41.30;;;;;;;;;;5074163;28;20438;-51
2021/07/14 02:14:19;;;;;;;75.77;42.77;;;;;;;;;;5073570;28;20399;-51
2021/07/14 02:16:46;;;;;;;58.60;40.37;;;;;;;;;;5073641;28;20906;-51
2021/07/14 02:19:14;;;;;;;80.43;42.63;;;;;;;;;;5073364;28;20377;-51
2021/07/14 02:21:40;;;;;;;62.43;43.10;;;;;;;;;;5074106;28;20403;-51
2021/07/14 02:24:06;;;;;;;63.43;42.53;;;;;;;;;;5073534;28;20731;-51
2021/07/14 02:26:33;;;;;;;64.87;43.40;;;;;;;;;;5073252;28;20437;-51
2021/07/14 02:28:59;;;;;;;179.17;47.27;;;;;;;;;;5073825;28;20429;-51
2021/07/14 02:31:25;;;;;;;77.17;44.50;;;;;;;;;;5073806;28;20489;-51
2021/07/14 02:33:51;;;;;;;57.13;42.20;;;;;;;;;;5073536;28;20951;-51
2021/07/14 02:36:18;;;;;;;64.30;44.40;;;;;;;;;;5073222;28;20466;-51
2021/07/14 02:38:46;;;;;;;50.50;39.40;;;;;;;;;;5073550;28;20413;-51
2021/07/14 02:41:17;;;;;;;69.23;43.30;;;;;;;;;;5074111;28;20410;-51
2021/07/14 02:43:48;;;;;;;60.07;38.10;;;;;;;;;;5073934;28;20480;-51
2021/07/14 02:46:18;;;;;;;54.63;40.00;;;;;;;;;;5073359;28;20760;-51
2021/07/14 02:48:46;;;;;;;56.63;39.87;;;;;;;;;;5072693;28;20903;-51
2021/07/14 02:51:13;;;;;;;53.00;38.67;;;;;;;;;;5073682;28;20437;-51
2021/07/14 02:53:45;;;;;;;58.17;39.37;;;;;;;;;;5073553;28;20981;-51
2021/07/14 02:56:15;;;;;;;56.00;38.07;;;;;;;;;;5073427;28;20424;-52
2021/07/14 02:58:44;;;;;;;52.53;40.20;;;;;;;;;;5073486;28;20961;-51
2021/07/14 03:01:10;;;;;;;57.90;39.63;;;;;;;;;;5073454;28;20421;-51
2021/07/14 03:03:36;;;;;;;64.13;39.70;;;;;;;;;;5073165;28;20829;-51
2021/07/14 03:06:02;;;;;;;67.80;39.70;;;;;;;;;;5072884;28;20492;-51
2021/07/14 03:08:29;;;;;;;82.93;40.77;;;;;;;;;;5072800;28;20429;-51
2021/07/14 03:10:56;;;;;;;56.33;38.97;;;;;;;;;;5072984;28;20415;-52
2021/07/14 03:13:23;;;;;;;69.00;41.43;;;;;;;;;;5073378;28;20399;-51
2021/07/14 03:15:50;;;;;;;62.47;38.47;;;;;;;;;;5072911;28;20543;-51
2021/07/14 03:18:16;;;;;;;96.37;41.30;;;;;;;;;;5072827;28;20467;-51
2021/07/14 03:20:44;;;;;;;60.03;40.83;;;;;;;;;;5073381;28;20394;-51
2021/07/14 03:23:10;;;;;;;93.97;43.67;;;;;;;;;;5073654;28;20474;-51
2021/07/14 03:25:36;;;;;;;73.90;40.53;;;;;;;;;;5072667;28;20874;-52
2021/07/14 03:28:02;;;;;;;56.23;39.63;;;;;;;;;;5072900;28;20921;-52
2021/07/14 03:30:29;;;;;;;64.03;40.23;;;;;;;;;;5072191;28;20468;-52
2021/07/14 03:32:55;;;;;;;79.97;38.13;;;;;;;;;;5073033;28;20846;-51
2021/07/14 03:35:21;;;;;;;67.17;40.73;;;;;;;;;;5072545;28;20406;-51
2021/07/14 03:37:48;;;;;;;58.90;38.30;;;;;;;;;;5072792;28;20446;-51
2021/07/14 03:40:14;;;;;;;52.20;38.37;;;;;;;;;;5073078;28;20397;-52
2021/07/14 03:42:41;;;;;;;65.07;37.27;;;;;;;;;;5072727;28;20399;-51
2021/07/14 03:45:08;;;;;;;116.87;38.20;;;;;;;;;;5072701;28;20401;-51
2021/07/14 03:47:34;;;;;;;60.80;37.97;;;;;;;;;;5072648;28;20457;-52
2021/07/14 03:50:01;;;;;;;67.13;36.00;;;;;;;;;;5073128;28;20788;-51
2021/07/14 03:52:28;;;;;;;54.23;36.40;;;;;;;;;;5072926;28;20394;-51
2021/07/14 03:54:54;;;;;;;52.00;34.90;;;;;;;;;;5072301;28;20410;-51
2021/07/14 03:57:21;;;;;;;58.90;34.30;;;;;;;;;;5072323;28;21041;-52
2021/07/14 03:59:48;;;;;;;180.87;40.80;;;;;;;;;;5072966;28;20410;-52
2021/07/14 04:02:14;;;;;;;79.07;37.10;;;;;;;;;;5072417;28;20405;-51
2021/07/14 04:04:40;;;;;;;56.37;35.73;;;;;;;;;;5072064;28;20488;-51
2021/07/14 04:07:13;;;;;;;65.50;34.40;;;;;;;;;;5072387;28;20425;-52
2021/07/14 04:09:39;;;;;;;73.07;38.60;;;;;;;;;;5072334;28;20406;-52
2021/07/14 04:12:05;;;;;;;49.77;35.30;;;;;;;;;;5072106;28;20398;-52
2021/07/14 04:14:31;;;;;;;57.07;35.90;;;;;;;;;;5072184;28;20402;-52
2021/07/14 04:16:58;;;;;;;67.33;34.77;;;;;;;;;;5072051;28;20822;-52
2021/07/14 04:19:24;;;;;;;54.83;37.00;;;;;;;;;;5072133;28;20430;-51
2021/07/14 04:21:50;;;;;;;72.90;36.00;;;;;;;;;;5072759;28;20401;-51
2021/07/14 04:24:16;;;;;;;73.43;36.77;;;;;;;;;;5071786;28;20501;-52
2021/07/14 04:26:43;;;;;;;75.50;38.30;;;;;;;;;;5071832;28;20418;-51
2021/07/14 04:29:08;;;;;;;57.73;36.33;;;;;;;;;;5071679;28;20451;-52
2021/07/14 04:31:35;;;;;;;108.67;37.40;;;;;;;;;;5072075;28;20401;-52
2021/07/14 04:34:01;;;;;;;50.93;36.00;;;;;;;;;;5071798;28;20405;-52
2021/07/14 04:36:28;;;;;;;53.80;37.27;;;;;;;;;;5071459;28;20457;-52
2021/07/14 04:38:54;;;;;;;58.23;36.80;;;;;;;;;;5071827;28;20499;-53
2021/07/14 04:41:20;;;;;;;50.07;37.23;;;;;;;;;;5071693;28;20406;-52
2021/07/14 04:43:46;;;;;;;53.20;37.40;;;;;;;;;;5075000;28;20398;-52
2021/07/14 04:46:12;;;;;;;62.00;38.73;;;;;;;;;;5074831;28;20402;-51
2021/07/14 04:48:38;;;;;;;55.93;37.00;;;;;;;;;;5074989;28;20925;-52
2021/07/14 04:51:04;;;;;;;55.67;34.93;;;;;;;;;;5074583;28;20411;-52
2021/07/14 04:53:30;;;;;;;61.17;38.27;;;;;;;;;;5074522;28;20414;-52
2021/07/14 04:55:56;;;;;;;72.40;35.60;;;;;;;;;;5073657;28;20552;-52
2021/07/14 04:58:22;;;;;;;86.53;37.50;;;;;;;;;;5074841;28;20417;-52
2021/07/14 05:00:48;;;;;;;58.93;36.67;;;;;;;;;;5074236;28;20781;-51
2021/07/14 05:03:14;;;;;;;62.20;38.97;;;;;;;;;;5074615;28;20747;-52
2021/07/14 05:05:40;;;;;;;62.33;37.50;;;;;;;;;;5074110;28;20790;-52
2021/07/14 05:08:06;;;;;;;66.73;39.13;;;;;;;;;;5074863;28;20433;-51
2021/07/14 05:10:32;;;;;;;62.57;38.00;;;;;;;;;;5074846;28;20401;-52
2021/07/14 05:12:58;;;;;;;64.43;37.13;;;;;;;;;;5074887;28;20410;-51
2021/07/14 05:15:25;;;;;;;56.17;36.60;;;;;;;;;;5074894;28;20886;-52
2021/07/14 05:17:51;;;;;;;141.80;40.43;;;;;;;;;;5074473;28;20455;-52
2021/07/14 05:20:20;;;;;;;63.63;37.33;;;;;;;;;;5074500;28;20438;-52
2021/07/14 05:22:47;;;;;;;62.70;37.10;;;;;;;;;;5074859;28;20802;-52
2021/07/14 05:25:15;;;;;;;58.27;36.00;;;;;;;;;;5074632;28;20398;-52
2021/07/14 05:27:41;;;;;;;54.70;36.70;;;;;;;;;;5074290;28;20424;-52
2021/07/14 05:30:08;;;;;;;59.60;37.70;;;;;;;;;;5074910;28;20393;-52
2021/07/14 05:32:34;;;;;;;63.90;37.90;;;;;;;;;;5074515;28;20398;-52
2021/07/14 05:35:00;;;;;;;184.43;41.00;;;;;;;;;;5074536;28;20408;-52
2021/07/14 05:37:26;;;;;;;68.27;37.57;;;;;;;;;;5074115;28;20461;-52
2021/07/14 05:39:52;;;;;;;223.80;41.90;;;;;;;;;;5074431;28;20404;-52
2021/07/14 05:42:18;;;;;;;85.23;36.90;;;;;;;;;;5074214;28;20397;-52
2021/07/14 05:44:44;;;;;;;60.57;37.50;;;;;;;;;;5073978;28;20403;-52
2021/07/14 05:47:10;;;;;;;56.30;38.00;;;;;;;;;;5074466;28;20425;-52
2021/07/14 05:49:36;;;;;;;72.30;39.60;;;;;;;;;;5074190;28;20882;-51
2021/07/14 05:52:02;;;;;;;52.00;35.40;;;;;;;;;;5055862;28;20860;-52
2021/07/14 05:54:28;;;;;;;62.17;36.90;;;;;;;;;;5071363;28;20405;-52
2021/07/14 05:56:54;;;;;;;50.23;35.63;;;;;;;;;;5072372;28;20540;-52
2021/07/14 05:59:20;;;;;;;168.37;39.93;;;;;;;;;;5072246;28;20547;-52
2021/07/14 06:01:46;;;;;;;66.07;34.47;;;;;;;;;;5072264;28;20455;-52
2021/07/14 06:04:12;;;;;;;91.47;36.40;;;;;;;;;;5072309;28;20916;-52
2021/07/14 06:06:38;;;;;;;56.50;32.47;;;;;;;;;;5072325;28;20460;-52
2021/07/14 06:09:04;;;;;;;57.20;33.40;;;;;;;;;;5072348;28;20379;-53
2021/07/14 06:11:30;;;;;;;53.13;33.10;;;;;;;;;;5072203;28;20914;-53
2021/07/14 06:13:56;;;;;;;53.23;33.20;;;;;;;;;;5071990;28;20409;-53
2021/07/14 06:16:22;;;;;;;49.23;33.20;;;;;;;;;;5071551;28;20467;-53
2021/07/14 06:18:48;;;;;;;91.50;35.03;;;;;;;;;;5072205;28;20385;-52
2021/07/14 06:21:14;;;;;;;91.43;33.80;;;;;;;;;;5071815;28;20458;-52
2021/07/14 06:23:40;;;;;;;107.20;36.03;;;;;;;;;;5071726;28;20423;-51
2021/07/14 06:26:06;;;;;;;51.53;34.20;;;;;;;;;;5071665;28;20405;-52
2021/07/14 06:28:32;;;;;;;49.57;35.00;;;;;;;;;;5071746;28;20447;-52
2021/07/14 06:30:58;;;;;;;46.97;32.77;;;;;;;;;;5071474;28;20918;-52
2021/07/14 06:33:24;;;;;;;54.37;33.07;;;;;;;;;;5071966;28;20739;-51
2021/07/14 06:35:53;;;;;;;48.90;33.97;;;;;;;;;;5071321;28;20509;-53
2021/07/14 06:38:19;;;;;;;50.10;31.10;;;;;;;;;;5071395;28;20455;-52
2021/07/14 06:40:46;;;;;;;53.00;31.30;;;;;;;;;;5071838;28;20816;-52
2021/07/14 06:43:17;;;;;;;82.63;32.60;;;;;;;;;;5071277;28;20377;-52
2021/07/14 06:45:44;;;;;;;50.10;30.63;;;;;;;;;;5071537;28;20418;-52
2021/07/14 06:48:10;;;;;;;43.60;30.10;;;;;;;;;;5071158;28;20409;-52
2021/07/14 06:50:36;;;;;;;58.03;31.80;;;;;;;;;;5071472;28;20402;-52
2021/07/14 06:53:04;;;;;;;61.17;31.10;;;;;;;;;;5071023;28;20392;-52
2021/07/14 06:55:30;;;;;;;41.13;27.57;;;;;;;;;;5070654;28;20390;-52
2021/07/14 06:57:56;;;;;;;53.80;29.30;;;;;;;;;;5070431;28;20416;-53
2021/07/14 07:00:22;;;;;;;52.07;28.27;;;;;;;;;;5070386;28;20403;-52
2021/07/14 07:02:48;;;;;;;38.10;27.70;;;;;;;;;;5070598;28;20393;-51
2021/07/14 07:05:14;;;;;;;45.80;27.10;;;;;;;;;;5069908;28;20534;-52
2021/07/14 07:07:40;;;;;;;43.40;25.00;;;;;;;;;;5070670;28;20433;-52
2021/07/14 07:10:06;;;;;;;38.63;25.57;;;;;;;;;;5070993;28;20413;-52
2021/07/14 07:12:32;;;;;;;36.83;26.17;;;;;;;;;;5052989;28;20443;-52
2021/07/14 07:14:58;;;;;;;34.87;24.00;;;;;;;;;;5070323;28;20406;-52
2021/07/14 07:17:24;;;;;;;35.23;22.53;;;;;;;;;;5070578;28;20472;-52
2021/07/14 07:19:50;;;;;;;33.03;23.00;;;;;;;;;;5070470;28;20410;-52
2021/07/14 07:22:16;;;;;;;35.63;21.40;;;;;;;;;;5070405;28;20835;-52
2021/07/14 07:24:42;;;;;;;37.23;21.73;;;;;;;;;;5070331;28;20417;-51
2021/07/14 07:27:08;;;;;;;32.17;20.30;;;;;;;;;;5069697;28;20488;-54
2021/07/14 07:29:35;;;;;;;36.67;21.50;;;;;;;;;;5070456;28;20424;-52
2021/07/14 07:32:01;;;;;;;34.73;20.37;;;;;;;;;;5070746;28;20412;-52
2021/07/14 07:34:27;;;;;;;31.00;21.77;;;;;;;;;;5070513;28;20484;-52
2021/07/14 07:36:53;;;;;;;29.47;20.00;;;;;;;;;;5070331;28;21040;-52
2021/07/14 07:39:19;;;;;;;32.97;19.90;;;;;;;;;;5070703;28;21013;-52
2021/07/14 07:41:45;;;;;;;32.33;19.90;;;;;;;;;;5070458;28;20413;-52
2021/07/14 07:44:11;;;;;;;38.53;21.00;;;;;;;;;;5070373;28;20405;-52
2021/07/14 07:46:39;;;;;;;28.90;19.40;;;;;;;;;;5070394;28;20425;-52
2021/07/14 07:49:05;;;;;;;34.63;18.80;;;;;;;;;;5070667;28;20414;-53
2021/07/14 07:51:32;;;;;;;26.50;20.73;;;;;;;;;;5070444;28;20398;-52
2021/07/14 07:53:57;;;;;;;30.50;18.87;;;;;;;;;;5070344;28;21074;-52
2021/07/14 07:56:26;;;;;;;23.97;18.47;;;;;;;;;;5070239;28;20449;-52
2021/07/14 07:58:52;;;;;;;84.10;22.47;;;;;;;;;;5070543;28;20479;-52
2021/07/14 08:01:18;;;;;;;38.20;18.13;;;;;;;;;;5070367;28;21092;-53
2021/07/14 08:03:44;;;;;;;21.97;17.47;;;;;;;;;;5070400;28;21096;-52
2021/07/14 08:06:10;;;;;;;75.83;20.77;;;;;;;;;;5070418;28;20895;-53
2021/07/14 08:08:36;;;;;;;41.90;20.70;;;;;;;;;;5070305;28;20430;-52
2021/07/14 08:11:02;;;;;;;38.43;19.30;;;;;;;;;;5070418;28;20402;-52
2021/07/14 08:13:28;;;;;;;73.13;21.47;;;;;;;;;;5070357;28;20402;-52
2021/07/14 08:15:57;;;;;;;88.07;21.37;;;;;;;;;;5070107;28;20457;-52
2021/07/14 08:18:23;;;;;;;30.17;19.77;;;;;;;;;;5072940;28;20454;-52
2021/07/14 08:20:49;;;;;;;41.63;19.10;;;;;;;;;;5074308;28;20406;-52
2021/07/14 08:23:15;;;;;;;35.50;21.57;;;;;;;;;;5074174;28;20394;-53
2021/07/14 08:25:41;;;;;;;41.37;20.40;;;;;;;;;;5073886;28;20457;-53
2021/07/14 08:28:07;;;;;;;37.17;21.43;;;;;;;;;;5073929;28;20421;-52
2021/07/14 08:30:34;;;;;;;62.07;21.57;;;;;;;;;;5074057;28;20374;-52
2021/07/14 08:33:00;;;;;;;54.17;22.50;;;;;;;;;;5073808;28;21002;-52
2021/07/14 08:35:26;;;;;;;37.07;18.77;;;;;;;;;;5073681;28;20489;-53
2021/07/14 08:37:52;;;;;;;75.40;21.13;;;;;;;;;;5073608;28;20440;-52
2021/07/14 08:40:19;;;;;;;25.10;20.50;;;;;;;;;;5073781;28;20398;-53
2021/07/14 08:42:47;;;;;;;95.63;23.77;;;;;;;;;;5073660;28;20801;-53
2021/07/14 08:45:16;;;;;;;79.90;23.03;;;;;;;;;;5073507;28;20457;-53
2021/07/14 08:47:42;;;;;;;27.60;19.73;;;;;;;;;;5073588;28;20455;-52
2021/07/14 08:50:10;;;;;;;159.30;24.90;;;;;;;;;;5073542;28;20439;-53
2021/07/14 08:52:36;;;;;;;32.10;20.93;;;;;;;;;;5073607;28;20404;-52
2021/07/14 08:55:02;;;;;;;36.23;22.60;;;;;;;;;;5073126;28;20407;-53
2021/07/14 08:57:28;;;;;;;52.50;23.30;;;;;;;;;;5073454;28;20493;-53
2021/07/14 08:59:54;;;;;;;37.20;24.07;;;;;;;;;;5073427;28;21086;-53
2021/07/14 09:02:20;;;;;;;32.90;21.27;;;;;;;;;;5073506;28;20460;-53
2021/07/14 09:04:46;;;;;;;49.20;25.23;;;;;;;;;;5073065;28;20837;-53
2021/07/14 09:07:13;;;;;;;52.10;25.53;;;;;;;;;;5073300;28;20418;-53
2021/07/14 09:09:39;;;;;;;47.40;26.60;;;;;;;;;;5073128;28;20409;-52
2021/07/14 09:12:11;;;;;;;60.80;28.17;;;;;;;;;;5071964;28;20419;-53
2021/07/14 09:14:38;;;;;;;74.30;29.63;;;;;;;;;;5055229;28;20922;-52
2021/07/14 09:17:23;;;;;;;49.40;28.50;;;;;;;;;;5072850;28;20516;-52
2021/07/14 09:19:49;;;;;;;49.90;27.77;;;;;;;;;;5072896;28;20400;-52
2021/07/14 09:22:25;;;;;;;56.80;31.40;;;;;;;;;;5073070;28;20389;-52
2021/07/14 09:24:56;;;;;;;64.70;32.07;;;;;;;;;;5072670;28;20395;-52
2021/07/14 09:27:27;;;;;;;62.70;30.47;;;;;;;;;;5073103;28;20414;-52
2021/07/14 09:30:13;;;;;;;88.67;31.97;;;;;;;;;;5071872;28;20406;-52
2021/07/14 09:32:48;;;;;;;54.90;30.17;;;;;;;;;;5073293;28;20403;-52
2021/07/14 09:35:29;;;;;;;53.17;31.20;;;;;;;;;;5072633;28;20404;-52
2021/07/14 09:37:56;;;;;;;62.77;31.63;;;;;;;;;;5072677;28;20433;-53
2021/07/14 09:40:22;;;;;;;51.83;28.90;;;;;;;;;;5072718;28;20868;-52
2021/07/14 09:42:56;;;;;;;54.47;29.13;;;;;;;;;;5072440;28;20423;-52
2021/07/14 09:45:34;;;;;;;57.60;30.03;;;;;;;;;;5072401;28;20795;-53
2021/07/14 09:48:00;;;;;;;46.00;27.97;;;;;;;;;;5072347;28;20423;-53
2021/07/14 09:50:37;;;;;;;48.10;26.80;;;;;;;;;;5072656;28;20403;-52
2021/07/14 09:53:08;;;;;;;43.63;27.73;;;;;;;;;;5072312;28;20371;-52
2021/07/14 09:55:34;;;;;;;41.63;27.03;;;;;;;;;;5072401;28;20447;-52
2021/07/14 09:58:10;;;;;;;47.57;27.13;;;;;;;;;;5072261;28;20470;-52
2021/07/14 10:00:43;;;;;;;42.20;28.00;;;;;;;;;;5072437;28;20496;-52
2021/07/14 10:03:10;;;;;;;50.50;30.30;;;;;;;;;;5072202;28;20418;-52
2021/07/14 10:05:36;;;;;;;44.80;28.10;;;;;;;;;;5071969;28;20426;-52
2021/07/14 10:08:14;;;;;;;42.13;26.47;;;;;;;;;;5072120;28;20447;-53
2021/07/14 10:10:40;;;;;;;45.10;27.33;;;;;;;;;;5072278;28;20427;-52
2021/07/14 10:13:10;;;;;;;46.07;28.97;;;;;;;;;;5072096;28;20420;-52
2021/07/14 10:15:36;;;;;;;39.93;25.27;;;;;;;;;;5071898;28;20406;-52
2021/07/14 10:18:02;;;;;;;45.87;27.00;;;;;;;;;;5071750;28;20433;-52
2021/07/14 10:20:29;;;;;;;43.53;29.03;;;;;;;;;;5071793;28;20727;-52
2021/07/14 10:22:55;;;;;;;65.87;26.93;;;;;;;;;;5072012;28;20960;-53
2021/07/14 10:25:22;;;;;;;43.07;26.90;;;;;;;;;;5071650;28;20491;-52
2021/07/14 10:27:49;;;;;;;59.13;29.23;;;;;;;;;;5071748;28;20515;-52
2021/07/14 10:30:16;;;;;;;41.20;27.10;;;;;;;;;;5071588;28;20402;-51
2021/07/14 10:32:42;;;;;;;45.37;26.93;;;;;;;;;;5071700;28;20920;-53
2021/07/14 10:35:10;;;;;;;51.40;27.73;;;;;;;;;;5071294;28;20416;-52
2021/07/14 10:37:38;;;;;;;46.10;26.70;;;;;;;;;;5071496;28;20469;-52
2021/07/14 10:40:05;;;;;;;50.63;28.60;;;;;;;;;;5071359;28;20407;-52
2021/07/14 10:42:32;;;;;;;54.60;30.40;;;;;;;;;;5071470;28;20396;-52
2021/07/14 10:44:58;;;;;;;59.37;31.40;;;;;;;;;;5071262;28;20402;-52
2021/07/14 10:47:24;;;;;;;52.37;28.63;;;;;;;;;;5071059;28;20822;-52
2021/07/14 10:49:50;;;;;;;57.73;30.50;;;;;;;;;;5071340;28;20403;-52
2021/07/14 10:52:16;;;;;;;44.97;28.00;;;;;;;;;;5071092;28;20408;-52
2021/07/14 10:54:43;;;;;;;51.33;28.73;;;;;;;;;;5070981;28;20411;-51
2021/07/14 10:57:09;;;;;;;48.53;29.70;;;;;;;;;;5070942;28;20463;-53
2021/07/14 10:59:36;;;;;;;56.20;32.83;;;;;;;;;;5071180;28;20438;-51
2021/07/14 11:02:02;;;;;;;53.17;31.67;;;;;;;;;;5070847;28;20477;-52
2021/07/14 11:04:28;;;;;;;52.37;32.30;;;;;;;;;;5070882;28;20460;-51
2021/07/14 11:06:58;;;;;;;55.20;31.23;;;;;;;;;;5070826;28;20960;-52
2021/07/14 11:09:33;;;;;;;71.13;35.60;;;;;;;;;;5071025;28;20471;-52
2021/07/14 11:11:59;;;;;;;56.03;32.40;;;;;;;;;;5070862;28;20401;-53
2021/07/14 11:14:38;;;;;;;59.43;36.20;;;;;;;;;;5070551;28;20412;-52
2021/07/14 11:17:05;;;;;;;57.93;36.37;;;;;;;;;;5070618;28;20474;-52
2021/07/14 11:19:50;;;;;;;70.73;37.00;;;;;;;;;;5070904;28;20404;-52
2021/07/14 11:22:17;;;;;;;75.93;35.00;;;;;;;;;;5070903;28;20396;-52
2021/07/14 11:24:45;;;;;;;64.57;39.20;;;;;;;;;;5070395;28;20396;-52
2021/07/14 11:27:19;;;;;;;58.47;36.53;;;;;;;;;;5070883;28;20483;-52
2021/07/14 11:29:46;;;;;;;84.73;36.47;;;;;;;;;;5061768;28;20409;-52
2021/07/14 11:32:32;;;;;;;73.33;37.60;;;;;;;;;;5050780;28;20463;-52
2021/07/14 11:34:59;;;;;;;67.70;37.43;;;;;;;;;;5050141;28;20887;-52
2021/07/14 11:37:32;;;;;;;66.27;40.30;;;;;;;;;;5050395;28;20545;-52
2021/07/14 11:40:17;;;;;;;70.33;39.73;;;;;;;;;;5050540;28;20397;-52
2021/07/14 11:42:59;;;;;;;67.43;40.33;;;;;;;;;;5050586;28;20379;-52
2021/07/14 11:45:34;;;;;;;90.53;41.07;;;;;;;;;;5050125;28;20392;-52
2021/07/14 11:48:07;;;;;;;84.77;42.70;;;;;;;;;;5050490;28;20806;-52
2021/07/14 11:50:43;;;;;;;82.27;39.83;;;;;;;;;;5050932;28;20400;-52
2021/07/14 11:56:14;;;;;;;86.93;43.50;;;;;;;;;;5050054;28;20425;-51
2021/07/14 11:58:43;;;;;;;93.17;43.60;;;;;;;;;;5036647;28;20513;-52
2021/07/14 12:01:09;;;;;;;75.93;44.37;;;;;;;;;;5050379;28;20470;-52
2021/07/14 12:03:35;;;;;;;107.90;41.97;;;;;;;;;;5050386;28;20403;-51
2021/07/14 12:06:01;;;;;;;81.17;46.53;;;;;;;;;;5050075;28;20382;-51
2021/07/14 12:08:37;;;;;;;86.27;41.67;;;;;;;;;;5050390;28;20490;-52
2021/07/14 12:11:05;;;;;;;83.63;42.57;;;;;;;;;;5050324;28;20434;-51
2021/07/14 12:13:31;;;;;;;81.60;43.83;;;;;;;;;;5050402;28;20486;-54
2021/07/14 12:15:56;;;;;;;103.43;46.73;;;;;;;;;;5050136;28;20495;-52
2021/07/14 12:18:22;;;;;;;87.27;47.50;;;;;;;;;;5050420;28;20446;-52
2021/07/14 12:20:49;;;;;;;75.70;45.00;;;;;;;;;;5050400;28;20407;-52
2021/07/14 12:23:15;;;;;;;88.07;47.30;;;;;;;;;;5050431;28;20405;-53
2021/07/14 12:25:42;;;;;;;88.97;47.33;;;;;;;;;;5048826;28;20407;-52
2021/07/14 12:28:12;;;;;;;89.30;46.93;;;;;;;;;;5050122;28;20425;-51
2021/07/14 12:30:43;;;;;;;116.53;45.70;;;;;;;;;;5049997;28;20402;-52
2021/07/14 12:33:09;;;;;;;75.47;45.40;;;;;;;;;;5050059;28;20748;-52
2021/07/14 12:35:36;;;;;;;82.03;47.97;;;;;;;;;;5049821;28;20487;-53
2021/07/14 12:38:02;;;;;;;113.30;52.83;;;;;;;;;;5049846;28;20953;-52
2021/07/14 12:40:29;;;;;;;97.93;51.80;;;;;;;;;;5050134;28;20404;-52
2021/07/14 12:42:57;;;;;;;97.50;50.67;;;;;;;;;;5049867;28;20460;-53
2021/07/14 12:45:28;;;;;;;127.57;53.37;;;;;;;;;;5049782;28;20385;-52
2021/07/14 12:47:54;;;;;;;108.20;50.53;;;;;;;;;;5049766;28;20926;-52
2021/07/14 12:50:21;;;;;;;148.97;51.77;;;;;;;;;;5053985;28;20772;-52
2021/07/14 12:52:51;;;;;;;84.23;48.57;;;;;;;;;;5069997;28;20785;-52
2021/07/14 12:55:20;;;;;;;305.43;56.13;;;;;;;;;;5069878;28;20436;-52
2021/07/14 12:57:53;;;;;;;76.00;45.37;;;;;;;;;;5069739;28;20494;-53
2021/07/14 13:00:21;;;;;;;98.07;50.60;;;;;;;;;;5070166;28;20490;-53
2021/07/14 13:02:50;;;;;;;96.90;47.03;;;;;;;;;;5051719;28;20465;-52
2021/07/14 13:05:18;;;;;;;87.00;48.67;;;;;;;;;;5054150;28;20413;-53
2021/07/14 13:07:54;;;;;;;84.43;49.90;;;;;;;;;;5073351;28;20437;-52
2021/07/14 13:10:24;;;;;;;139.23;49.67;;;;;;;;;;5073186;28;20399;-52
2021/07/14 13:12:55;;;;;;;87.00;50.90;;;;;;;;;;5073194;28;20389;-52
2021/07/14 13:15:22;;;;;;;82.07;49.70;;;;;;;;;;5073140;28;20759;-51
2021/07/14 13:17:48;;;;;;;91.37;51.37;;;;;;;;;;5072832;28;20511;-51
2021/07/14 13:20:16;;;;;;;104.23;53.77;;;;;;;;;;5072771;28;20397;-51
2021/07/14 13:22:43;;;;;;;90.37;51.90;;;;;;;;;;5072972;28;20400;-51
2021/07/14 13:25:11;;;;;;;116.30;52.10;;;;;;;;;;5072570;28;20399;-51
2021/07/14 13:27:38;;;;;;;114.67;51.47;;;;;;;;;;5072707;28;20945;-51
2021/07/14 13:30:19;;;;;;;173.30;53.67;;;;;;;;;;5072543;28;20404;-51
2021/07/14 13:32:57;;;;;;;74.10;47.90;;;;;;;;;;5072761;28;20901;-51
2021/07/14 13:35:24;;;;;;;77.67;47.20;;;;;;;;;;5072395;28;20494;-51
2021/07/14 13:37:50;;;;;;;112.87;46.97;;;;;;;;;;5072629;28;20499;-51
2021/07/14 13:40:24;;;;;;;104.30;49.53;;;;;;;;;;5072442;28;20951;-53
2021/07/14 13:42:52;;;;;;;84.23;50.07;;;;;;;;;;5072540;28;20412;-51
2021/07/14 13:45:28;;;;;;;114.90;48.27;;;;;;;;;;5072423;28;20407;-52
2021/07/14 13:47:58;;;;;;;64.47;46.03;;;;;;;;;;5072350;28;20420;-52
2021/07/14 13:50:24;;;;;;;94.67;52.10;;;;;;;;;;5072444;28;20487;-52
2021/07/14 13:53:00;;;;;;;83.07;50.73;;;;;;;;;;5072120;28;20486;-52
2021/07/14 13:55:26;;;;;;;77.07;51.57;;;;;;;;;;5054167;28;20463;-51
2021/07/14 13:57:52;;;;;;;83.37;50.40;;;;;;;;;;5072015;28;20456;-51
2021/07/14 14:00:18;;;;;;;86.80;51.17;;;;;;;;;;5072403;28;20464;-52
2021/07/14 14:02:56;;;;;;;82.87;50.60;;;;;;;;;;5072183;28;20415;-53
2021/07/14 14:05:22;;;;;;;93.97;56.37;;;;;;;;;;5072367;28;20440;-51
2021/07/14 14:07:48;;;;;;;103.90;55.83;;;;;;;;;;5071885;28;20427;-51
2021/07/14 14:10:16;;;;;;;53.23;37.07;;;;;;;;;;5072287;28;20481;-50
2021/07/14 14:12:44;;;;;;;38.83;27.43;;;;;;;;;;5071893;28;20381;-51
2021/07/14 14:15:13;;;;;;;37.10;18.80;;;;;;;;;;5071324;28;20408;-51
2021/07/14 14:17:39;;;;;;;22.00;10.17;;;;;;;;;;5071594;28;20532;-51
2021/07/14 14:20:07;;;;;;;12.53;8.33;;;;;;;;;;5071589;28;20405;-52
2021/07/14 14:22:33;;;;;;;16.97;9.43;;;;;;;;;;5071802;28;20911;-52
2021/07/14 14:25:04;;;;;;;10.17;7.20;;;;;;;;;;5071385;28;20899;-52
2021/07/14 14:27:49;;;;;;;8.00;5.20;;;;;;;;;;5054377;28;20503;-52
2021/07/14 14:30:18;;;;;;;6.60;4.30;;;;;;;;;;5071529;28;20377;-53
2021/07/14 14:32:45;;;;;;;6.90;4.73;;;;;;;;;;5071644;28;20410;-53